| time (UTC) | temp F | wind direction | speed knots | gust knots | rain 1hr in | rain 24hr in | rain mn in | humidity % | barometer mb |
| 20260502162210 | 49 | 52 | 0.9 | 0.9 | 0.00 | 0.00 | 0.00 | 53 | 1023.5 |
| 20260502161708 | 48 | 255 | 0.0 | 0.9 | 0.00 | 0.00 | 0.00 | 55 | 1023.6 |
| 20260502161204 | 48 | 306 | 0.0 | 0.9 | 0.00 | 0.00 | 0.00 | 57 | 1023.9 |
| 20260502160703 | 48 | 54 | 0.9 | 1.7 | 0.00 | 0.00 | 0.00 | 55 | 1023.8 |
| 20260502160202 | 47 | 122 | 0.0 | 0.0 | 0.00 | 0.00 | 0.00 | 58 | 1023.6 |
| 20260502152115 | 41 | 358 | 0.9 | 1.7 | 0.00 | 0.00 | 0.00 | 65 | 1023.9 |
| 20260502151612 | 41 | 162 | 0.9 | 0.9 | 0.00 | 0.00 | 0.00 | 63 | 1024.0 |
| 20260502151110 | 40 | 352 | 0.0 | 0.9 | 0.00 | 0.00 | 0.00 | 65 | 1024.1 |
| 20260502150607 | 40 | 30 | 2.6 | 2.6 | 0.00 | 0.00 | 0.00 | 67 | 1024.2 |
| 20260502150103 | 39 | 6 | 0.9 | 1.7 | 0.00 | 0.00 | 0.00 | 69 | 1023.8 |
| 20260502130452 | 28 | 154 | 0.0 | 0.0 | 0.00 | 0.00 | 0.00 | 83 | 1023.6 |
| 20260502123434 | 28 | 117 | 0.0 | 0.9 | 0.00 | 0.00 | 0.00 | 82 | 1023.6 |
| 20260502122932 | 28 | 265 | 1.7 | 2.6 | 0.00 | 0.00 | 0.00 | 83 | 1023.8 |
| 20260502122427 | 28 | 150 | 0.0 | 0.0 | 0.00 | 0.00 | 0.00 | 84 | 1023.4 |
| 20260502121926 | 28 | 150 | 0.0 | 0.0 | 0.00 | 0.00 | 0.00 | 84 | 1023.4 |
| 20260502121422 | 28 | 150 | 0.0 | 0.0 | 0.00 | 0.00 | 0.00 | 83 | 1023.6 |
| 20260502120921 | 28 | 148 | 0.0 | 0.9 | 0.00 | 0.00 | 0.00 | 84 | 1023.6 |
| 20260502120416 | 28 | 152 | 0.0 | 0.0 | 0.00 | 0.00 | 0.00 | 83 | 1023.5 |
| 20260502115914 | 28 | 152 | 0.0 | 0.0 | 0.00 | 0.00 | 0.00 | 82 | 1023.5 |
| 20260502115411 | 29 | 141 | 0.9 | 0.9 | 0.00 | 0.00 | 0.00 | 81 | 1023.6 |
| 20260502114907 | 29 | 141 | 0.9 | 0.9 | 0.00 | 0.00 | 0.00 | 81 | 1023.6 |
| 20260502114404 | 28 | 177 | 0.0 | 0.0 | 0.00 | 0.00 | 0.00 | 81 | 1023.8 |
| 20260502113901 | 29 | 177 | 0.0 | 0.9 | 0.00 | 0.00 | 0.00 | 81 | 1023.6 |
| 20260502113358 | 29 | 178 | 0.0 | 0.0 | 0.00 | 0.00 | 0.00 | 82 | 1023.8 |
| 20260502112856 | 29 | 178 | 0.0 | 0.0 | 0.00 | 0.00 | 0.00 | 80 | 1023.5 |
| 20260502112354 | 29 | 178 | 0.0 | 0.9 | 0.00 | 0.00 | 0.00 | 81 | 1023.9 |
| 20260502111851 | 29 | 177 | 0.0 | 0.0 | 0.00 | 0.00 | 0.00 | 80 | 1023.6 |
| 20260502111348 | 29 | 178 | 0.0 | 0.0 | 0.00 | 0.00 | 0.00 | 82 | 1023.5 |
| 20260502110846 | 29 | 178 | 0.0 | 0.9 | 0.00 | 0.00 | 0.00 | 82 | 1023.6 |
| 20260502110344 | 29 | 177 | 0.0 | 0.0 | 0.00 | 0.00 | 0.00 | 83 | 1023.6 |
| 20260502105841 | 29 | 177 | 0.0 | 0.0 | 0.00 | 0.00 | 0.00 | 82 | 1023.8 |
| 20260502105338 | 29 | 177 | 0.0 | 0.0 | 0.00 | 0.00 | 0.00 | 80 | 1023.6 |
| 20260502104835 | 30 | 177 | 0.0 | 0.9 | 0.00 | 0.00 | 0.00 | 80 | 1023.8 |
| 20260502104333 | 31 | 177 | 0.0 | 0.0 | 0.00 | 0.00 | 0.00 | 77 | 1023.8 |
| 20260502103830 | 30 | 177 | 0.0 | 0.0 | 0.00 | 0.00 | 0.00 | 78 | 1023.8 |
| 20260502103327 | 30 | 178 | 0.0 | 0.0 | 0.00 | 0.00 | 0.00 | 79 | 1023.6 |
| 20260502102824 | 30 | 179 | 0.0 | 0.0 | 0.00 | 0.00 | 0.00 | 79 | 1023.4 |
| 20260502102320 | 31 | 178 | 0.0 | 0.0 | 0.00 | 0.00 | 0.00 | 77 | 1023.5 |
| 20260502101818 | 31 | 178 | 0.0 | 0.0 | 0.00 | 0.00 | 0.00 | 77 | 1023.6 |
| 20260502101316 | 31 | 178 | 0.0 | 0.0 | 0.00 | 0.00 | 0.00 | 77 | 1023.8 |
| 20260502100814 | 31 | 183 | 0.0 | 0.0 | 0.00 | 0.00 | 0.00 | 76 | 1023.6 |
| 20260502100313 | 32 | 183 | 0.0 | 0.9 | 0.00 | 0.00 | 0.00 | 76 | 1023.9 |
| 20260502091247 | 32 | 197 | 0.0 | 0.0 | 0.00 | 0.00 | 0.00 | 74 | 1023.5 |
| 20260502090744 | 33 | 200 | 0.9 | 0.9 | 0.00 | 0.00 | 0.00 | 75 | 1023.5 |
| 20260502090241 | 33 | 225 | 0.0 | 0.0 | 0.00 | 0.00 | 0.00 | 71 | 1023.4 |
| 20260502071142 | 35 | 192 | 0.0 | 0.0 | 0.00 | 0.00 | 0.00 | 67 | 1023.3 |
| 20260502070640 | 36 | 192 | 0.0 | 0.9 | 0.00 | 0.00 | 0.00 | 68 | 1023.6 |
| 20260502070137 | 37 | 139 | 0.0 | 0.0 | 0.00 | 0.00 | 0.00 | 66 | 1023.5 |
| 20260502065635 | 37 | 255 | 0.0 | 0.9 | 0.00 | 0.00 | 0.00 | 64 | 1023.5 |
| 20260502065133 | 37 | 249 | 0.0 | 0.0 | 0.00 | 0.00 | 0.00 | 66 | 1023.4 |
| 20260502064632 | 38 | 249 | 0.0 | 0.0 | 0.00 | 0.00 | 0.00 | 62 | 1023.4 |
| 20260502064128 | 38 | 102 | 0.0 | 0.9 | 0.00 | 0.00 | 0.00 | 61 | 1023.4 |
| 20260502063626 | 40 | 158 | 0.0 | 0.9 | 0.00 | 0.00 | 0.00 | 58 | 1022.9 |
| 20260502063124 | 40 | 178 | 0.0 | 0.9 | 0.00 | 0.00 | 0.00 | 57 | 1023.4 |
| 20260502062620 | 41 | 73 | 0.9 | 0.9 | 0.00 | 0.00 | 0.00 | 56 | 1023.0 |
| 20260502062118 | 41 | 66 | 0.9 | 5.2 | 0.00 | 0.00 | 0.00 | 55 | 1022.9 |
| 20260502061616 | 40 | 70 | 0.9 | 0.9 | 0.00 | 0.00 | 0.00 | 57 | 1023.2 |
| 20260502061114 | 40 | 119 | 0.0 | 0.9 | 0.00 | 0.00 | 0.00 | 57 | 1023.0 |
| 20260502060613 | 41 | 102 | 0.0 | 0.9 | 0.00 | 0.00 | 0.00 | 58 | 1022.9 |
| 20260502060110 | 42 | 158 | 0.9 | 0.9 | 0.00 | 0.00 | 0.00 | 57 | 1023.0 |
| 20260502055608 | 41 | 222 | 1.7 | 2.6 | 0.00 | 0.00 | 0.00 | 54 | 1023.0 |
| 20260502055106 | 41 | 179 | 0.9 | 1.7 | 0.00 | 0.00 | 0.00 | 57 | 1023.0 |
| 20260502054605 | 41 | 158 | 1.7 | 1.7 | 0.00 | 0.00 | 0.00 | 58 | 1023.0 |
| 20260502054102 | 41 | 110 | 0.9 | 1.7 | 0.00 | 0.00 | 0.00 | 57 | 1022.9 |
| 20260502053558 | 41 | 184 | 2.6 | 4.3 | 0.00 | 0.00 | 0.00 | 58 | 1023.0 |
| 20260502053056 | 42 | 216 | 2.6 | 2.6 | 0.00 | 0.00 | 0.00 | 55 | 1023.0 |
| 20260502052554 | 42 | 182 | 0.0 | 1.7 | 0.00 | 0.00 | 0.00 | 54 | 1022.8 |
| 20260502052052 | 42 | 93 | 0.9 | 2.6 | 0.00 | 0.00 | 0.00 | 53 | 1022.7 |
| 20260502051550 | 42 | 172 | 1.7 | 1.7 | 0.00 | 0.00 | 0.00 | 54 | 1022.5 |
| 20260502051048 | 42 | 175 | 1.7 | 1.7 | 0.00 | 0.00 | 0.00 | 57 | 1022.8 |
| 20260502050543 | 44 | 151 | 4.3 | 5.2 | 0.00 | 0.00 | 0.00 | 55 | 1022.8 |
| 20260502050040 | 44 | 180 | 1.7 | 1.7 | 0.00 | 0.00 | 0.00 | 51 | 1023.0 |
| 20260502045537 | 44 | 170 | 0.0 | 1.7 | 0.00 | 0.00 | 0.00 | 51 | 1022.9 |
| 20260502045034 | 44 | 200 | 0.9 | 1.7 | 0.00 | 0.00 | 0.00 | 52 | 1022.9 |
| 20260502044531 | 44 | 190 | 2.6 | 4.3 | 0.00 | 0.00 | 0.00 | 50 | 1022.5 |
| 20260502044027 | 44 | 152 | 0.0 | 0.9 | 0.00 | 0.00 | 0.00 | 53 | 1022.8 |
| 20260502043525 | 44 | 176 | 1.7 | 1.7 | 0.00 | 0.00 | 0.00 | 51 | 1022.7 |
| 20260502043021 | 44 | 178 | 0.9 | 1.7 | 0.00 | 0.00 | 0.00 | 50 | 1022.5 |
| 20260502042516 | 44 | 202 | 0.0 | 0.9 | 0.00 | 0.00 | 0.00 | 50 | 1022.5 |
| 20260502042014 | 44 | 149 | 1.7 | 1.7 | 0.00 | 0.00 | 0.00 | 50 | 1022.1 |
| 20260502041512 | 44 | 170 | 0.0 | 0.0 | 0.00 | 0.00 | 0.00 | 52 | 1022.4 |
| 20260502041008 | 45 | 171 | 0.0 | 0.9 | 0.00 | 0.00 | 0.00 | 48 | 1022.3 |
| 20260502040505 | 45 | 141 | 0.9 | 0.9 | 0.00 | 0.00 | 0.00 | 48 | 1022.1 |
| 20260502040003 | 46 | 112 | 0.0 | 0.9 | 0.00 | 0.00 | 0.00 | 47 | 1022.2 |
| 20260502035457 | 46 | 102 | 0.0 | 0.9 | 0.00 | 0.00 | 0.00 | 48 | 1022.1 |
| 20260502034955 | 46 | 122 | 0.9 | 1.7 | 0.00 | 0.00 | 0.00 | 48 | 1021.7 |
| 20260502034454 | 47 | 121 | 0.9 | 1.7 | 0.00 | 0.00 | 0.00 | 47 | 1021.7 |
| 20260502033952 | 47 | 184 | 0.0 | 0.9 | 0.00 | 0.00 | 0.00 | 47 | 1021.8 |
| 20260502033449 | 47 | 154 | 0.9 | 1.7 | 0.00 | 0.00 | 0.00 | 47 | 1021.3 |
| 20260502032946 | 48 | 152 | 0.9 | 2.6 | 0.00 | 0.00 | 0.00 | 46 | 1021.3 |
| 20260502032442 | 48 | 122 | 1.7 | 1.7 | 0.00 | 0.00 | 0.00 | 46 | 1021.3 |
| 20260502031939 | 48 | 144 | 0.9 | 1.7 | 0.00 | 0.00 | 0.00 | 46 | 1021.5 |
| 20260502031438 | 48 | 144 | 0.9 | 1.7 | 0.00 | 0.00 | 0.00 | 47 | 1021.3 |
| 20260502030936 | 48 | 130 | 1.7 | 1.7 | 0.00 | 0.00 | 0.00 | 45 | 1021.3 |
| 20260502030434 | 48 | 182 | 0.9 | 2.6 | 0.00 | 0.00 | 0.00 | 46 | 1021.2 |
| 20260502025931 | 49 | 141 | 0.9 | 2.6 | 0.00 | 0.00 | 0.00 | 45 | 1021.1 |
| 20260502025428 | 49 | 124 | 0.9 | 1.7 | 0.00 | 0.00 | 0.00 | 46 | 1021.0 |
| 20260502024926 | 49 | 146 | 0.9 | 1.7 | 0.00 | 0.00 | 0.00 | 46 | 1021.2 |
| 20260502024424 | 50 | 139 | 0.9 | 1.7 | 0.00 | 0.00 | 0.00 | 45 | 1021.1 |
| 20260502023922 | 50 | 133 | 1.7 | 1.7 | 0.00 | 0.00 | 0.00 | 45 | 1021.1 |
| 20260502023419 | 50 | 134 | 1.7 | 2.6 | 0.00 | 0.00 | 0.00 | 43 | 1021.0 |
| 20260502022916 | 50 | 146 | 0.9 | 1.7 | 0.00 | 0.00 | 0.00 | 43 | 1020.9 |
| 20260502022412 | 51 | 91 | 0.9 | 1.7 | 0.00 | 0.00 | 0.00 | 41 | 1020.9 |
| 20260502021909 | 53 | 147 | 0.0 | 1.7 | 0.00 | 0.00 | 0.00 | 43 | 1021.0 |
| 20260502021407 | 54 | 121 | 0.9 | 0.9 | 0.00 | 0.00 | 0.00 | 43 | 1021.1 |
| 20260502020904 | 56 | 28 | 0.9 | 0.9 | 0.00 | 0.00 | 0.00 | 35 | 1020.7 |
| 20260502020402 | 56 | 14 | 0.9 | 2.6 | 0.00 | 0.00 | 0.00 | 36 | 1021.1 |
| 20260502015858 | 57 | 15 | 2.6 | 2.6 | 0.00 | 0.00 | 0.00 | 37 | 1020.6 |
| 20260502015355 | 57 | 8 | 0.9 | 0.9 | 0.00 | 0.00 | 0.00 | 36 | 1020.9 |
| 20260502014853 | 57 | 14 | 0.9 | 1.7 | 0.00 | 0.00 | 0.00 | 37 | 1021.0 |
| 20260502014349 | 58 | 356 | 0.9 | 1.7 | 0.00 | 0.00 | 0.00 | 37 | 1020.7 |
| 20260502013845 | 59 | 251 | 0.0 | 0.9 | 0.00 | 0.00 | 0.00 | 34 | 1020.9 |
| 20260502013341 | 60 | 231 | 0.0 | 2.6 | 0.00 | 0.00 | 0.00 | 32 | 1021.0 |
| 20260502012838 | 61 | 275 | 0.0 | 1.7 | 0.00 | 0.00 | 0.00 | 31 | 1020.5 |
| 20260502012336 | 61 | 296 | 0.9 | 2.6 | 0.00 | 0.00 | 0.00 | 30 | 1020.7 |
| 20260502011833 | 61 | 283 | 0.9 | 2.6 | 0.00 | 0.00 | 0.00 | 31 | 1020.5 |
| 20260502011329 | 61 | 284 | 2.6 | 5.2 | 0.00 | 0.00 | 0.00 | 29 | 1020.7 |
| 20260502010827 | 61 | 248 | 2.6 | 4.3 | 0.00 | 0.00 | 0.00 | 30 | 1020.7 |
| 20260502010323 | 62 | 330 | 2.6 | 5.2 | 0.00 | 0.00 | 0.00 | 28 | 1020.6 |
| 20260502005820 | 62 | 263 | 1.7 | 5.2 | 0.00 | 0.00 | 0.00 | 29 | 1020.7 |
| 20260502005318 | 62 | 240 | 1.7 | 4.3 | 0.00 | 0.00 | 0.00 | 29 | 1020.6 |
| 20260502004815 | 61 | 265 | 0.0 | 4.3 | 0.00 | 0.00 | 0.00 | 28 | 1020.6 |
| 20260502004310 | 62 | 288 | 2.6 | 2.6 | 0.00 | 0.00 | 0.00 | 29 | 1020.9 |
| 20260502003809 | 62 | 38 | 2.6 | 4.3 | 0.00 | 0.00 | 0.00 | 28 | 1020.7 |
| 20260502003305 | 62 | 263 | 1.7 | 2.6 | 0.00 | 0.00 | 0.00 | 30 | 1020.7 |
| 20260502002801 | 62 | 278 | 0.9 | 5.2 | 0.00 | 0.00 | 0.00 | 31 | 1020.9 |
| 20260502002259 | 62 | 265 | 2.6 | 5.2 | 0.00 | 0.00 | 0.00 | 29 | 1020.7 |
| 20260502001756 | 62 | 290 | 3.5 | 5.2 | 0.00 | 0.00 | 0.00 | 27 | 1020.6 |
| 20260502001254 | 62 | 340 | 0.9 | 2.6 | 0.00 | 0.00 | 0.00 | 28 | 1020.7 |
| 20260502000752 | 63 | 264 | 3.5 | 4.3 | 0.00 | 0.00 | 0.00 | 27 | 1020.9 |
| 20260502000250 | 62 | 276 | 1.7 | 2.6 | 0.00 | 0.00 | 0.00 | 29 | 1020.9 |
| 20260501235744 | 62 | 314 | 0.0 | 4.3 | 0.00 | 0.00 | 0.00 | 28 | 1020.7 |
| 20260501235241 | 62 | 272 | 2.6 | 6.1 | 0.00 | 0.00 | 0.00 | 29 | 1021.2 |
| 20260501234737 | 63 | 329 | 2.6 | 4.3 | 0.00 | 0.00 | 0.00 | 28 | 1020.9 |
| 20260501234234 | 63 | 333 | 0.9 | 4.3 | 0.00 | 0.00 | 0.00 | 28 | 1021.0 |
| 20260501233732 | 62 | 256 | 2.6 | 4.3 | 0.00 | 0.00 | 0.00 | 25 | 1020.7 |
| 20260501233229 | 62 | 286 | 2.6 | 4.3 | 0.00 | 0.00 | 0.00 | 27 | 1020.7 |
| 20260501232724 | 62 | 254 | 3.5 | 8.7 | 0.00 | 0.00 | 0.00 | 27 | 1020.9 |
| 20260501232222 | 62 | 252 | 0.9 | 7.0 | 0.00 | 0.00 | 0.00 | 28 | 1020.7 |
| 20260501231719 | 62 | 260 | 2.6 | 4.3 | 0.00 | 0.00 | 0.00 | 26 | 1020.7 |
| 20260501231217 | 62 | 249 | 4.3 | 6.1 | 0.00 | 0.00 | 0.00 | 25 | 1020.9 |
| 20260501230715 | 62 | 282 | 2.6 | 5.2 | 0.00 | 0.00 | 0.00 | 28 | 1020.7 |
| 20260501230214 | 63 | 257 | 0.0 | 6.1 | 0.00 | 0.00 | 0.00 | 29 | 1021.0 |
| 20260501225711 | 62 | 247 | 1.7 | 2.6 | 0.00 | 0.00 | 0.00 | 26 | 1021.0 |
| 20260501225208 | 62 | 334 | 2.6 | 4.3 | 0.00 | 0.00 | 0.00 | 27 | 1021.0 |
| 20260501224704 | 62 | 257 | 2.6 | 5.2 | 0.00 | 0.00 | 0.00 | 26 | 1021.1 |
| 20260501224201 | 62 | 287 | 4.3 | 5.2 | 0.00 | 0.00 | 0.00 | 25 | 1021.0 |
| 20260501223658 | 61 | 247 | 2.6 | 2.6 | 0.00 | 0.00 | 0.00 | 25 | 1021.1 |
| 20260501223154 | 62 | 274 | 3.5 | 6.1 | 0.00 | 0.00 | 0.00 | 27 | 1021.1 |
| 20260501222650 | 62 | 311 | 3.5 | 5.2 | 0.00 | 0.00 | 0.00 | 28 | 1021.2 |
| 20260501222148 | 62 | 202 | 0.9 | 4.3 | 0.00 | 0.00 | 0.00 | 29 | 1021.1 |
| 20260501221644 | 62 | 272 | 4.3 | 6.1 | 0.00 | 0.00 | 0.00 | 27 | 1021.5 |
| 20260501221141 | 62 | 261 | 3.5 | 6.1 | 0.00 | 0.00 | 0.00 | 28 | 1021.3 |
| 20260501220639 | 60 | 263 | 1.7 | 6.1 | 0.00 | 0.00 | 0.00 | 30 | 1021.1 |
| 20260501220136 | 60 | 311 | 3.5 | 4.3 | 0.00 | 0.00 | 0.00 | 28 | 1021.5 |
| 20260501215633 | 61 | 308 | 4.3 | 7.8 | 0.00 | 0.00 | 0.00 | 29 | 1021.6 |
| 20260501215128 | 62 | 324 | 4.3 | 6.1 | 0.00 | 0.00 | 0.00 | 26 | 1021.6 |
| 20260501214623 | 61 | 246 | 0.9 | 4.3 | 0.00 | 0.00 | 0.00 | 29 | 1021.6 |
| 20260501214119 | 60 | 243 | 4.3 | 7.0 | 0.00 | 0.00 | 0.00 | 27 | 1021.5 |
| 20260501213616 | 61 | 259 | 4.3 | 5.2 | 0.00 | 0.00 | 0.00 | 28 | 1021.6 |
| 20260501213112 | 60 | 270 | 1.7 | 4.3 | 0.00 | 0.00 | 0.00 | 25 | 1021.8 |
| 20260501212609 | 59 | 294 | 2.6 | 5.2 | 0.00 | 0.00 | 0.00 | 28 | 1021.8 |
| 20260501212106 | 60 | 277 | 3.5 | 6.1 | 0.00 | 0.00 | 0.00 | 27 | 1021.8 |
| 20260501211602 | 60 | 278 | 2.6 | 5.2 | 0.00 | 0.00 | 0.00 | 30 | 1021.8 |
| 20260501211100 | 60 | 293 | 0.9 | 6.1 | 0.00 | 0.00 | 0.00 | 32 | 1022.1 |
| 20260501210556 | 59 | 260 | 0.9 | 2.6 | 0.00 | 0.00 | 0.00 | 37 | 1022.2 |
| 20260501210053 | 59 | 289 | 4.3 | 7.0 | 0.00 | 0.00 | 0.00 | 35 | 1022.2 |
| 20260501205550 | 58 | 296 | 4.3 | 7.0 | 0.00 | 0.00 | 0.00 | 36 | 1022.3 |
| 20260501205048 | 58 | 266 | 2.6 | 4.3 | 0.00 | 0.00 | 0.00 | 37 | 1021.9 |
| 20260501204543 | 57 | 285 | 1.7 | 5.2 | 0.00 | 0.00 | 0.00 | 38 | 1021.9 |
| 20260501204039 | 57 | 238 | 2.6 | 4.3 | 0.00 | 0.00 | 0.00 | 37 | 1022.2 |
| 20260501203536 | 57 | 343 | 2.6 | 5.2 | 0.00 | 0.00 | 0.00 | 37 | 1022.3 |
| 20260501203034 | 57 | 272 | 1.7 | 4.3 | 0.00 | 0.00 | 0.00 | 39 | 1022.3 |
| 20260501202531 | 57 | 255 | 2.6 | 7.0 | 0.00 | 0.00 | 0.00 | 39 | 1022.3 |
| 20260501202027 | 56 | 347 | 1.7 | 2.6 | 0.00 | 0.00 | 0.00 | 39 | 1022.4 |
| 20260501201525 | 57 | 26 | 1.7 | 4.3 | 0.00 | 0.00 | 0.00 | 41 | 1022.3 |
| 20260501201021 | 57 | 290 | 1.7 | 4.3 | 0.00 | 0.00 | 0.00 | 39 | 1022.5 |
| 20260501200518 | 57 | 274 | 0.9 | 4.3 | 0.00 | 0.00 | 0.00 | 38 | 1022.4 |
| 20260501200016 | 57 | 241 | 0.0 | 1.7 | 0.00 | 0.00 | 0.00 | 36 | 1022.5 |
| 20260501195513 | 57 | 295 | 1.7 | 5.2 | 0.00 | 0.00 | 0.00 | 39 | 1022.8 |
| 20260501195008 | 57 | 252 | 2.6 | 5.2 | 0.00 | 0.00 | 0.00 | 39 | 1022.4 |
| 20260501194504 | 56 | 284 | 2.6 | 5.2 | 0.00 | 0.00 | 0.00 | 38 | 1022.8 |
| 20260501194000 | 57 | 354 | 3.5 | 4.3 | 0.00 | 0.00 | 0.00 | 40 | 1022.7 |
| 20260501193458 | 55 | 341 | 1.7 | 2.6 | 0.00 | 0.00 | 0.00 | 45 | 1022.7 |
| 20260501192955 | 56 | 258 | 2.6 | 4.3 | 0.00 | 0.00 | 0.00 | 43 | 1022.7 |
| 20260501192453 | 55 | 223 | 0.9 | 5.2 | 0.00 | 0.00 | 0.00 | 46 | 1022.5 |
| 20260501191950 | 55 | 247 | 2.6 | 4.3 | 0.00 | 0.00 | 0.00 | 44 | 1022.8 |
| 20260501191447 | 54 | 29 | 3.5 | 7.0 | 0.00 | 0.00 | 0.00 | 45 | 1022.9 |
| 20260501190944 | 54 | 18 | 4.3 | 5.2 | 0.00 | 0.00 | 0.00 | 46 | 1022.8 |
| 20260501190440 | 53 | 130 | 1.7 | 1.7 | 0.00 | 0.00 | 0.00 | 53 | 1023.0 |
| 20260501185935 | 54 | 65 | 0.9 | 2.6 | 0.00 | 0.00 | 0.00 | 46 | 1023.0 |
| 20260501185431 | 53 | 100 | 0.0 | 1.7 | 0.00 | 0.00 | 0.00 | 45 | 1023.0 |
| 20260501184927 | 53 | 116 | 2.6 | 4.3 | 0.00 | 0.00 | 0.00 | 45 | 1023.2 |
| 20260501184424 | 54 | 29 | 3.5 | 5.2 | 0.00 | 0.00 | 0.00 | 47 | 1023.2 |
| 20260501183918 | 55 | 223 | 0.9 | 4.3 | 0.00 | 0.00 | 0.00 | 47 | 1023.3 |
| 20260501183416 | 53 | 224 | 1.7 | 6.1 | 0.00 | 0.00 | 0.00 | 47 | 1023.4 |
| 20260501182912 | 52 | 314 | 1.7 | 5.2 | 0.00 | 0.00 | 0.00 | 47 | 1023.3 |
| 20260501182410 | 53 | 82 | 0.9 | 2.6 | 0.00 | 0.00 | 0.00 | 46 | 1023.3 |
| 20260501181906 | 54 | 21 | 1.7 | 2.6 | 0.00 | 0.00 | 0.00 | 48 | 1023.4 |
| 20260501181403 | 52 | 208 | 0.9 | 4.3 | 0.00 | 0.00 | 0.00 | 51 | 1023.3 |
| 20260501180900 | 53 | 289 | 1.7 | 2.6 | 0.00 | 0.00 | 0.00 | 55 | 1023.5 |
| 20260501180357 | 53 | 303 | 1.7 | 2.6 | 0.00 | 0.00 | 0.00 | 47 | 1023.5 |
| 20260501175854 | 52 | 279 | 2.6 | 2.6 | 0.00 | 0.00 | 0.00 | 51 | 1023.6 |
| 20260501175350 | 51 | 69 | 1.7 | 6.1 | 0.00 | 0.00 | 0.00 | 50 | 1023.6 |
| 20260501174847 | 50 | 104 | 0.9 | 2.6 | 0.00 | 0.00 | 0.00 | 50 | 1023.8 |
| 20260501174345 | 50 | 296 | 2.6 | 4.3 | 0.00 | 0.00 | 0.00 | 51 | 1023.8 |
| 20260501173842 | 50 | 252 | 4.3 | 7.0 | 0.00 | 0.00 | 0.00 | 52 | 1024.0 |
| 20260501173340 | 50 | 91 | 0.9 | 5.2 | 0.00 | 0.00 | 0.00 | 52 | 1024.0 |
| 20260501172835 | 50 | 0 | 2.6 | 4.3 | 0.00 | 0.00 | 0.00 | 50 | 1024.0 |
| 20260501172330 | 49 | 273 | 1.7 | 5.2 | 0.00 | 0.00 | 0.00 | 50 | 1023.9 |
| 20260501171826 | 49 | 340 | 1.7 | 2.6 | 0.00 | 0.00 | 0.00 | 51 | 1023.8 |
| 20260501171324 | 49 | 242 | 1.7 | 4.3 | 0.00 | 0.00 | 0.00 | 51 | 1023.9 |
| 20260501170820 | 49 | 264 | 0.0 | 5.2 | 0.00 | 0.00 | 0.00 | 53 | 1024.2 |
| 20260501170317 | 49 | 346 | 0.9 | 2.6 | 0.00 | 0.00 | 0.00 | 51 | 1024.0 |
| 20260501165814 | 49 | 240 | 0.9 | 4.3 | 0.00 | 0.00 | 0.00 | 55 | 1024.0 |
| 20260501165312 | 48 | 273 | 0.9 | 2.6 | 0.00 | 0.00 | 0.00 | 59 | 1023.9 |
| 20260501164810 | 47 | 18 | 0.0 | 1.7 | 0.00 | 0.00 | 0.00 | 61 | 1023.9 |
| 20260501164307 | 47 | 56 | 1.7 | 2.6 | 0.00 | 0.00 | 0.00 | 61 | 1024.2 |
| 20260501163803 | 47 | 250 | 0.9 | 2.6 | 0.00 | 0.00 | 0.00 | 60 | 1024.2 |
| 20260501163300 | 47 | 5 | 1.7 | 2.6 | 0.00 | 0.00 | 0.00 | 61 | 1024.1 |
| 20260501162756 | 46 | 311 | 1.7 | 1.7 | 0.00 | 0.00 | 0.00 | 64 | 1024.0 |
| 20260501162253 | 46 | 4 | 1.7 | 1.7 | 0.00 | 0.00 | 0.00 | 65 | 1024.0 |